createdAt,value
2023-12-13T00:00:01.614Z,13.50
2023-12-13T00:02:29.814Z,15.60
2023-12-13T00:04:57.800Z,14.10
2023-12-13T00:07:25.629Z,15.50
2023-12-13T00:09:53.639Z,14.50
2023-12-13T00:12:21.913Z,20.40
2023-12-13T00:14:49.613Z,16.60
2023-12-13T00:17:19.336Z,20.40
2023-12-13T00:19:48.393Z,12.80
2023-12-13T00:22:16.664Z,16.10
2023-12-13T00:24:44.599Z,16.40
2023-12-13T00:27:12.487Z,14.90
2023-12-13T00:29:40.305Z,12.50
2023-12-13T00:32:08.232Z,13.20
2023-12-13T00:34:36.427Z,17.00
2023-12-13T00:37:04.494Z,16.40
2023-12-13T00:39:33.457Z,15.60
2023-12-13T00:42:01.231Z,14.20
2023-12-13T00:44:29.048Z,15.30
2023-12-13T00:46:57.083Z,15.50
2023-12-13T00:49:24.882Z,18.30
2023-12-13T00:51:53.220Z,14.30
2023-12-13T00:54:21.054Z,15.10
2023-12-13T00:56:49.146Z,24.60
2023-12-13T00:59:17.454Z,13.00
2023-12-13T01:01:45.704Z,10.90
2023-12-13T01:04:14.939Z,9.10
2023-12-13T01:06:42.858Z,13.20
2023-12-13T01:09:11.529Z,13.60
2023-12-13T01:11:41.307Z,10.30
2023-12-13T01:14:09.972Z,11.00
2023-12-13T01:16:38.072Z,12.50
2023-12-13T01:19:06.008Z,12.40
2023-12-13T01:21:33.837Z,8.40
2023-12-13T01:26:29.877Z,10.90
2023-12-13T01:28:58.301Z,9.00
2023-12-13T01:31:26.535Z,10.20
2023-12-13T01:33:54.613Z,8.40
2023-12-13T01:36:22.430Z,9.80
2023-12-13T01:38:50.320Z,9.40
2023-12-13T01:41:18.710Z,12.10
2023-12-13T01:43:47.176Z,11.30
2023-12-13T01:46:18.204Z,12.30
2023-12-13T01:48:47.277Z,12.10
2023-12-13T01:51:15.896Z,12.40
2023-12-13T01:53:44.707Z,9.20
2023-12-13T01:56:13.828Z,13.90
2023-12-13T01:58:42.417Z,11.80
2023-12-13T02:01:10.743Z,12.30
2023-12-13T02:03:39.358Z,11.00
2023-12-13T02:06:07.490Z,16.00
2023-12-13T02:08:35.618Z,11.20
2023-12-13T02:11:03.534Z,12.10
2023-12-13T02:13:31.464Z,11.30
2023-12-13T02:15:59.502Z,10.40
2023-12-13T02:18:28.552Z,12.10
2023-12-13T02:20:56.885Z,13.50
2023-12-13T02:23:24.915Z,15.70
2023-12-13T02:25:58.330Z,13.10
2023-12-13T02:28:28.465Z,12.20
2023-12-13T02:30:58.369Z,17.50
2023-12-13T02:33:31.529Z,17.60
2023-12-13T02:36:01.883Z,13.50
2023-12-13T02:38:30.966Z,9.80
2023-12-13T02:40:58.880Z,14.30
2023-12-13T02:43:29.572Z,12.20
2023-12-13T02:45:57.647Z,11.30
2023-12-13T02:48:26.787Z,10.40
2023-12-13T02:50:55.119Z,12.70
2023-12-13T02:53:24.416Z,11.80
2023-12-13T02:55:52.561Z,12.20
2023-12-13T02:58:20.585Z,15.30
2023-12-13T03:00:49.991Z,13.40
2023-12-13T03:03:18.459Z,10.80
2023-12-13T03:05:46.744Z,13.00
2023-12-13T03:08:18.751Z,13.40
2023-12-13T03:10:47.573Z,10.30
2023-12-13T03:13:17.971Z,11.70
2023-12-13T03:15:45.750Z,12.10
2023-12-13T03:18:14.001Z,11.90
2023-12-13T03:20:41.789Z,9.80
2023-12-13T03:23:10.637Z,11.80
2023-12-13T03:25:39.700Z,11.20
2023-12-13T03:28:07.426Z,12.40
2023-12-13T03:30:35.340Z,13.10
2023-12-13T03:33:03.831Z,10.90
2023-12-13T03:35:31.839Z,11.10
2023-12-13T03:37:59.657Z,11.40
2023-12-13T03:40:27.602Z,10.10
2023-12-13T03:42:55.965Z,12.70
2023-12-13T03:45:25.464Z,9.60
2023-12-13T03:47:54.156Z,11.60
2023-12-13T03:50:22.562Z,10.10
2023-12-13T03:52:50.672Z,12.60
2023-12-13T03:55:18.772Z,11.80
2023-12-13T03:57:47.075Z,8.50
2023-12-13T04:00:15.151Z,10.10
2023-12-13T04:02:43.128Z,10.60
2023-12-13T04:05:10.964Z,11.90
2023-12-13T04:07:39.375Z,15.10
2023-12-13T04:10:07.817Z,13.60
2023-12-13T04:12:35.599Z,12.00
2023-12-13T04:15:03.679Z,10.60
2023-12-13T04:17:32.147Z,12.90
2023-12-13T04:20:00.517Z,10.90
2023-12-13T04:22:29.318Z,12.10
2023-12-13T04:24:57.535Z,10.00
2023-12-13T04:27:25.285Z,12.00
2023-12-13T04:29:54.090Z,13.80
2023-12-13T04:32:21.972Z,12.40
2023-12-13T04:34:50.124Z,10.70
2023-12-13T04:37:18.483Z,13.70
2023-12-13T04:39:47.077Z,12.00
2023-12-13T04:42:14.762Z,11.10
2023-12-13T04:44:43.403Z,11.30
2023-12-13T04:47:12.351Z,10.60
2023-12-13T04:49:40.231Z,10.60
2023-12-13T04:52:09.450Z,10.80
2023-12-13T04:54:38.493Z,14.20
2023-12-13T04:57:07.098Z,13.10
2023-12-13T04:59:35.958Z,13.60
2023-12-13T05:02:03.979Z,11.90
2023-12-13T05:04:31.956Z,15.20
2023-12-13T05:07:00.368Z,12.30
2023-12-13T05:09:28.399Z,13.50
2023-12-13T05:11:56.603Z,12.00
2023-12-13T05:14:24.258Z,12.00
2023-12-13T05:16:52.242Z,14.10
2023-12-13T05:19:20.467Z,18.50
2023-12-13T05:21:48.745Z,17.80
2023-12-13T05:24:16.515Z,16.40
2023-12-13T05:26:44.340Z,12.10
2023-12-13T05:29:13.964Z,9.60
2023-12-13T05:31:42.130Z,9.80
2023-12-13T05:34:10.194Z,11.50
2023-12-13T05:36:38.648Z,10.60
2023-12-13T05:39:08.601Z,9.50
2023-12-13T05:41:37.004Z,9.40
2023-12-13T05:44:05.831Z,12.80
2023-12-13T05:46:35.525Z,12.60
2023-12-13T05:49:10.569Z,10.70
2023-12-13T05:51:41.412Z,13.50
2023-12-13T05:54:10.131Z,8.60
2023-12-13T05:56:38.127Z,8.40
2023-12-13T05:59:06.461Z,10.70
2023-12-13T06:01:34.258Z,12.30
2023-12-13T06:04:02.732Z,12.30
2023-12-13T06:06:30.804Z,9.10
2023-12-13T06:08:58.506Z,11.90
2023-12-13T06:13:55.336Z,10.20
2023-12-13T06:16:23.543Z,10.30
2023-12-13T06:18:52.319Z,8.50
2023-12-13T06:21:20.271Z,9.10
2023-12-13T06:23:48.735Z,10.00
2023-12-13T06:26:17.040Z,12.10
2023-12-13T06:28:45.350Z,8.50
2023-12-13T06:31:13.845Z,10.30
2023-12-13T06:33:41.851Z,9.90
2023-12-13T06:36:10.361Z,7.30
2023-12-13T06:38:38.563Z,8.60
2023-12-13T06:41:07.336Z,5.70
2023-12-13T06:43:35.433Z,8.70
2023-12-13T06:46:03.245Z,7.90
2023-12-13T06:48:31.246Z,5.90
2023-12-13T06:50:59.116Z,7.50
2023-12-13T06:53:28.041Z,6.60
2023-12-13T06:55:56.418Z,8.10
2023-12-13T06:58:24.296Z,6.10
2023-12-13T07:00:52.613Z,7.00
2023-12-13T07:03:21.748Z,10.70
2023-12-13T07:05:50.409Z,9.60
2023-12-13T07:08:18.213Z,8.20
2023-12-13T07:10:46.529Z,7.40
2023-12-13T07:13:15.132Z,7.20
2023-12-13T07:15:42.892Z,9.10
2023-12-13T07:18:11.657Z,6.60
2023-12-13T07:20:40.980Z,7.10
2023-12-13T07:23:11.142Z,6.90
2023-12-13T07:25:40.167Z,7.50
2023-12-13T07:28:07.919Z,7.50
2023-12-13T07:30:37.021Z,6.60
2023-12-13T07:33:06.391Z,7.50
2023-12-13T07:35:34.086Z,7.40
2023-12-13T07:38:02.182Z,6.90
2023-12-13T07:40:30.653Z,10.10
2023-12-13T07:42:58.705Z,8.30
2023-12-13T07:45:26.526Z,6.80
2023-12-13T07:48:04.757Z,8.20
2023-12-13T07:50:44.292Z,7.10
2023-12-13T07:53:12.262Z,9.40
2023-12-13T07:55:40.341Z,7.40
2023-12-13T07:58:08.222Z,7.10
2023-12-13T08:00:36.506Z,7.50
2023-12-13T08:03:05.837Z,7.70
2023-12-13T08:05:34.930Z,5.40
2023-12-13T08:08:02.762Z,6.20
2023-12-13T08:10:31.365Z,5.50
2023-12-13T08:13:00.268Z,5.30
2023-12-13T08:15:28.023Z,9.70
2023-12-13T08:17:56.209Z,7.10
2023-12-13T08:20:30.397Z,10.20
2023-12-13T08:22:58.937Z,6.20
2023-12-13T08:25:27.689Z,6.20
2023-12-13T08:27:55.550Z,6.20
2023-12-13T08:30:23.394Z,5.10
2023-12-13T08:32:52.477Z,5.70
2023-12-13T08:35:20.799Z,4.90
2023-12-13T08:37:48.710Z,8.20
2023-12-13T08:40:17.436Z,5.50
2023-12-13T08:42:46.157Z,9.10
2023-12-13T08:45:14.440Z,5.60
2023-12-13T08:47:42.971Z,5.60
2023-12-13T08:50:11.348Z,6.30
2023-12-13T08:52:39.555Z,7.60
2023-12-13T08:55:11.680Z,8.70
2023-12-13T08:57:39.829Z,7.60
2023-12-13T09:00:10.695Z,7.30
2023-12-13T09:02:39.858Z,4.10
2023-12-13T09:05:09.674Z,5.70
2023-12-13T09:07:37.900Z,4.10
2023-12-13T09:10:09.632Z,11.20
2023-12-13T09:12:37.911Z,7.90
2023-12-13T09:15:08.544Z,13.00
2023-12-13T09:17:37.451Z,8.90
2023-12-13T09:20:11.252Z,9.70
2023-12-13T09:22:39.675Z,11.70
2023-12-13T09:25:08.268Z,11.30
2023-12-13T09:27:37.125Z,9.80
2023-12-13T09:30:05.325Z,6.70
2023-12-13T09:32:34.735Z,6.00
2023-12-13T09:35:03.768Z,8.60
2023-12-13T09:37:32.435Z,6.40
2023-12-13T09:40:03.125Z,5.30
2023-12-13T09:42:33.009Z,6.70
2023-12-13T09:45:05.584Z,6.40
2023-12-13T09:47:35.997Z,7.90
2023-12-13T09:50:04.681Z,10.10
2023-12-13T09:52:34.172Z,6.90
2023-12-13T09:55:04.266Z,8.60
2023-12-13T09:57:32.981Z,7.20
2023-12-13T10:00:00.740Z,8.20
2023-12-13T10:02:29.453Z,7.40
2023-12-13T10:05:00.524Z,7.70
2023-12-13T10:07:29.564Z,4.70
2023-12-13T10:09:57.277Z,4.00
2023-12-13T10:12:28.832Z,3.80
2023-12-13T10:14:57.039Z,6.00
2023-12-13T10:17:25.740Z,8.80
2023-12-13T10:19:53.476Z,7.10
2023-12-13T10:22:22.991Z,7.10
2023-12-13T10:24:51.144Z,6.80
2023-12-13T10:27:19.624Z,10.50
2023-12-13T10:29:48.431Z,11.90
2023-12-13T10:32:16.238Z,7.30
2023-12-13T10:34:44.503Z,5.90
2023-12-13T10:37:13.510Z,13.10
2023-12-13T10:39:45.663Z,6.80
2023-12-13T10:42:18.225Z,9.70
2023-12-13T10:44:51.571Z,7.60
2023-12-13T10:47:27.345Z,7.70
2023-12-13T10:50:05.053Z,6.60
2023-12-13T10:52:34.892Z,5.90
2023-12-13T10:55:02.708Z,5.50
2023-12-13T10:57:31.177Z,6.10
2023-12-13T10:59:59.878Z,7.50
2023-12-13T11:02:29.954Z,8.10
2023-12-13T11:04:58.424Z,6.50
2023-12-13T11:07:26.207Z,7.60
2023-12-13T11:09:55.197Z,7.70
2023-12-13T11:12:23.490Z,7.60
2023-12-13T11:14:53.149Z,8.50
2023-12-13T11:17:23.442Z,10.80
2023-12-13T11:19:53.777Z,12.70
2023-12-13T11:22:25.479Z,9.90
2023-12-13T11:25:05.150Z,10.70
2023-12-13T11:27:34.133Z,9.50
2023-12-13T11:30:33.104Z,10.50
2023-12-13T11:33:12.718Z,8.60
2023-12-13T11:35:42.648Z,8.10
2023-12-13T11:38:11.417Z,5.40
2023-12-13T11:40:42.034Z,5.50
2023-12-13T11:43:14.105Z,4.70
2023-12-13T11:45:50.712Z,6.80
2023-12-13T11:48:19.146Z,7.70
2023-12-13T11:50:47.730Z,9.10
2023-12-13T11:53:16.190Z,6.20
2023-12-13T11:55:44.925Z,6.00
2023-12-13T11:58:16.463Z,6.40
2023-12-13T12:00:45.908Z,10.00
2023-12-13T12:03:14.909Z,12.40
2023-12-13T12:05:44.394Z,9.30
2023-12-13T12:08:13.638Z,12.60
2023-12-13T12:10:44.036Z,11.50
2023-12-13T12:13:16.090Z,8.30
2023-12-13T12:15:45.484Z,10.30
2023-12-13T12:18:14.558Z,7.30
2023-12-13T12:20:43.067Z,8.10
2023-12-13T12:23:11.993Z,6.90
2023-12-13T12:25:43.735Z,6.50
2023-12-13T12:28:12.754Z,7.40
2023-12-13T12:30:41.663Z,7.60
2023-12-13T12:33:10.692Z,8.80
2023-12-13T12:35:40.499Z,7.70
2023-12-13T12:38:09.868Z,9.00
2023-12-13T12:40:38.759Z,9.20
2023-12-13T12:43:07.398Z,7.50
2023-12-13T12:45:35.382Z,15.00
2023-12-13T12:48:04.217Z,11.20
2023-12-13T12:50:32.186Z,11.20
2023-12-13T12:53:01.686Z,12.00
2023-12-13T12:55:30.534Z,11.40
2023-12-13T12:57:58.752Z,13.20
2023-12-13T13:00:26.641Z,15.70
2023-12-13T13:02:55.885Z,13.10
2023-12-13T13:05:23.783Z,13.60
2023-12-13T13:07:53.432Z,12.60
2023-12-13T13:10:21.550Z,11.00
2023-12-13T13:12:49.863Z,11.10
2023-12-13T13:15:17.711Z,15.50
2023-12-13T13:17:46.426Z,9.90
2023-12-13T13:20:16.478Z,18.80
2023-12-13T13:22:45.478Z,10.70
2023-12-13T13:25:16.303Z,31.50
2023-12-13T13:27:45.771Z,52.70
2023-12-13T13:30:15.176Z,45.60
2023-12-13T13:32:43.294Z,134.60
2023-12-13T13:35:12.493Z,69.40
2023-12-13T13:37:40.301Z,63.40
2023-12-13T13:40:08.799Z,15.70
2023-12-13T13:42:36.889Z,13.40
2023-12-13T13:45:07.745Z,16.60
2023-12-13T13:47:36.262Z,7.80
2023-12-13T13:50:04.925Z,7.50
2023-12-13T13:52:33.047Z,10.20
2023-12-13T13:55:01.055Z,6.90
2023-12-13T13:57:29.228Z,10.80
2023-12-13T13:59:58.839Z,10.20
2023-12-13T14:02:50.037Z,6.20
2023-12-13T14:05:18.818Z,8.90
2023-12-13T14:07:46.883Z,12.80
2023-12-13T14:10:15.115Z,13.70
2023-12-13T14:12:42.850Z,8.40
2023-12-13T14:15:12.392Z,12.00
2023-12-13T14:17:41.077Z,12.20
2023-12-13T14:20:12.180Z,12.50
2023-12-13T14:22:40.455Z,8.80
2023-12-13T14:25:09.831Z,7.50
2023-12-13T14:27:38.021Z,3.80
2023-12-13T14:30:06.905Z,3.30
2023-12-13T14:32:34.812Z,3.90
2023-12-13T14:35:05.816Z,3.60
2023-12-13T14:37:40.453Z,5.50
2023-12-13T14:40:12.761Z,7.10
2023-12-13T14:42:42.723Z,4.50
2023-12-13T14:45:10.658Z,4.90
2023-12-13T14:47:40.097Z,3.40
2023-12-13T14:50:10.771Z,3.10
2023-12-13T14:52:39.077Z,3.60
2023-12-13T14:55:09.425Z,3.10
2023-12-13T14:57:38.502Z,5.90
2023-12-13T15:00:13.095Z,3.80
2023-12-13T15:02:45.796Z,4.50
2023-12-13T15:05:14.529Z,6.80
2023-12-13T15:07:44.155Z,4.80
2023-12-13T15:10:15.131Z,3.80
2023-12-13T15:12:44.889Z,5.50
2023-12-13T15:15:13.068Z,7.70
2023-12-13T15:17:41.636Z,7.40
2023-12-13T15:20:11.288Z,8.60
2023-12-13T15:22:39.506Z,6.00
2023-12-13T15:25:12.758Z,4.90
2023-12-13T15:27:43.999Z,5.10
2023-12-13T15:30:13.305Z,4.80
2023-12-13T15:32:43.258Z,5.40
2023-12-13T15:35:12.758Z,5.70
2023-12-13T15:37:41.221Z,4.80
2023-12-13T15:40:10.995Z,4.70
2023-12-13T15:42:39.014Z,4.20
2023-12-13T15:47:37.976Z,3.90
2023-12-13T15:50:08.605Z,4.60
2023-12-13T15:52:38.831Z,3.20
2023-12-13T15:55:08.512Z,3.90
2023-12-13T15:57:36.472Z,2.90
2023-12-13T16:00:06.596Z,4.60
2023-12-13T16:02:35.150Z,4.80
2023-12-13T16:05:04.622Z,13.00
2023-12-13T16:07:33.304Z,7.30
2023-12-13T16:10:02.098Z,5.40
2023-12-13T16:12:30.220Z,7.20
2023-12-13T16:15:00.370Z,5.90
2023-12-13T16:17:29.676Z,6.60
2023-12-13T16:19:57.847Z,7.70
2023-12-13T16:22:28.709Z,7.20
2023-12-13T16:24:58.946Z,8.10
2023-12-13T16:27:27.230Z,7.60
2023-12-13T16:29:57.998Z,7.00
2023-12-13T16:32:26.344Z,8.40
2023-12-13T16:34:55.004Z,9.50
2023-12-13T16:37:31.796Z,7.90
2023-12-13T16:39:59.659Z,6.20
2023-12-13T16:42:27.442Z,9.80
2023-12-13T16:44:55.825Z,12.00
2023-12-13T16:49:55.885Z,9.60
2023-12-13T16:52:23.843Z,5.20
2023-12-13T16:54:51.952Z,4.80
2023-12-13T16:57:21.881Z,5.10
2023-12-13T16:59:50.370Z,4.60
2023-12-13T17:02:18.183Z,4.10
2023-12-13T17:05:06.865Z,4.20
2023-12-13T17:07:34.769Z,5.80
2023-12-13T17:10:02.782Z,2.80
2023-12-13T17:12:32.193Z,3.20
2023-12-13T17:15:03.179Z,6.10
2023-12-13T17:17:32.840Z,6.10
2023-12-13T17:20:00.942Z,4.10
2023-12-13T17:22:32.478Z,3.90
2023-12-13T17:25:00.933Z,4.30
2023-12-13T17:27:29.026Z,4.30
2023-12-13T17:29:56.830Z,5.10
2023-12-13T17:32:24.692Z,4.10
2023-12-13T17:34:52.425Z,4.80
2023-12-13T17:37:21.942Z,7.00
2023-12-13T17:39:50.636Z,5.20
2023-12-13T17:42:18.580Z,4.30
2023-12-13T17:44:47.300Z,4.40
2023-12-13T17:47:17.738Z,4.60
2023-12-13T17:49:45.680Z,4.50
2023-12-13T17:52:15.290Z,5.60
2023-12-13T17:54:43.637Z,7.50
2023-12-13T17:57:13.982Z,9.40
2023-12-13T17:59:43.285Z,10.30
2023-12-13T18:02:14.374Z,8.70
2023-12-13T18:04:44.198Z,8.80
2023-12-13T18:07:12.502Z,8.50
2023-12-13T18:09:43.281Z,7.30
2023-12-13T18:12:11.698Z,6.80
2023-12-13T18:14:40.141Z,6.60
2023-12-13T18:17:08.095Z,5.40
2023-12-13T18:19:36.634Z,6.10
2023-12-13T18:22:05.705Z,7.30
2023-12-13T18:24:33.746Z,6.70
2023-12-13T18:27:02.325Z,6.10
2023-12-13T18:29:32.237Z,4.90
2023-12-13T18:32:03.758Z,5.70
2023-12-13T18:34:32.391Z,5.20
2023-12-13T18:37:00.619Z,5.80
2023-12-13T18:39:28.302Z,6.50
2023-12-13T18:41:56.399Z,5.90
2023-12-13T18:44:24.140Z,7.40
2023-12-13T18:49:20.085Z,5.10
2023-12-13T18:51:51.582Z,5.60
2023-12-13T18:54:20.106Z,5.20
2023-12-13T18:56:47.922Z,7.30
2023-12-13T18:59:16.372Z,7.00
2023-12-13T19:01:44.587Z,4.70
2023-12-13T19:04:12.459Z,4.90
2023-12-13T19:06:41.318Z,4.30
2023-12-13T19:09:09.375Z,4.70
2023-12-13T19:11:37.533Z,5.00
2023-12-13T19:14:07.462Z,5.20
2023-12-13T19:16:40.611Z,5.10
2023-12-13T19:19:09.028Z,9.20
2023-12-13T19:21:37.323Z,12.60
2023-12-13T19:24:05.293Z,19.20
2023-12-13T19:26:33.553Z,10.50
2023-12-13T19:29:05.078Z,15.50
2023-12-13T19:31:33.031Z,30.10
2023-12-13T19:34:01.374Z,18.60
2023-12-13T19:36:29.259Z,11.20
2023-12-13T19:38:57.462Z,11.70
2023-12-13T19:41:25.248Z,7.00
2023-12-13T19:46:21.215Z,10.20
2023-12-13T19:48:49.744Z,8.10
2023-12-13T19:51:17.846Z,10.40
2023-12-13T19:53:45.881Z,11.60
2023-12-13T19:56:13.653Z,5.90
2023-12-13T19:58:41.756Z,5.30
2023-12-13T20:01:11.645Z,5.50
2023-12-13T20:03:39.387Z,6.20
2023-12-13T20:06:07.553Z,5.60
2023-12-13T20:08:35.625Z,7.30
2023-12-13T20:11:03.475Z,7.10
2023-12-13T20:13:36.353Z,5.70
2023-12-13T20:16:07.827Z,7.20
2023-12-13T20:18:36.861Z,7.40
2023-12-13T20:21:05.724Z,8.30
2023-12-13T20:23:33.625Z,6.60
2023-12-13T20:26:04.244Z,6.90
2023-12-13T20:28:33.773Z,6.80
2023-12-13T20:31:01.821Z,6.00
2023-12-13T20:33:30.084Z,5.60
2023-12-13T20:35:58.616Z,4.00
2023-12-13T20:38:26.666Z,3.60
2023-12-13T20:40:54.703Z,4.10
2023-12-13T20:43:23.174Z,4.10
2023-12-13T20:45:53.705Z,3.50
2023-12-13T20:48:21.691Z,4.10
2023-12-13T20:50:49.476Z,3.40
2023-12-13T20:53:17.730Z,4.20
2023-12-13T20:55:46.246Z,3.80
2023-12-13T20:58:14.045Z,3.60
2023-12-13T21:03:10.235Z,5.40
2023-12-13T21:05:38.337Z,6.10
2023-12-13T21:08:08.861Z,4.30
2023-12-13T21:10:38.957Z,5.20
2023-12-13T21:13:07.179Z,4.30
2023-12-13T21:15:35.242Z,3.80
2023-12-13T21:18:03.485Z,6.30
2023-12-13T21:20:31.586Z,5.40
2023-12-13T21:23:01.909Z,5.80
2023-12-13T21:25:30.354Z,6.10
2023-12-13T21:27:58.384Z,6.70
2023-12-13T21:30:26.745Z,5.90
2023-12-13T21:32:54.651Z,4.80
2023-12-13T21:35:22.478Z,5.10
2023-12-13T21:37:51.222Z,5.60
2023-12-13T21:40:19.049Z,5.40
2023-12-13T21:42:47.167Z,5.40
2023-12-13T21:45:14.956Z,5.30
2023-12-13T21:47:42.939Z,6.00
2023-12-13T21:50:10.981Z,4.90
2023-12-13T21:52:40.029Z,4.40
2023-12-13T21:55:08.816Z,6.80
2023-12-13T21:57:37.763Z,6.10
2023-12-13T22:00:08.299Z,4.60
2023-12-13T22:02:36.274Z,4.50
2023-12-13T22:05:05.812Z,3.70
2023-12-13T22:07:34.059Z,4.10
2023-12-13T22:10:02.083Z,4.30
2023-12-13T22:12:31.684Z,4.50
2023-12-13T22:15:00.228Z,3.70
2023-12-13T22:17:30.042Z,4.70
2023-12-13T22:19:59.442Z,5.20
2023-12-13T22:22:27.839Z,7.10
2023-12-13T22:24:55.553Z,4.20
2023-12-13T22:29:51.795Z,4.30
2023-12-13T22:32:22.924Z,3.40
2023-12-13T22:34:50.927Z,7.30
2023-12-13T22:37:19.353Z,5.40
2023-12-13T22:39:47.065Z,6.30
2023-12-13T22:44:43.012Z,7.50
2023-12-13T22:47:11.561Z,6.10
2023-12-13T22:49:40.028Z,6.40
2023-12-13T22:52:20.161Z,7.80
2023-12-13T22:54:52.260Z,5.60
2023-12-13T22:57:19.938Z,5.00
2023-12-13T23:02:15.394Z,4.40
2023-12-13T23:04:44.104Z,3.90
2023-12-13T23:07:12.328Z,3.80
2023-12-13T23:09:40.377Z,4.40
2023-12-13T23:12:08.876Z,5.00
2023-12-13T23:14:37.234Z,3.60
2023-12-13T23:17:05.837Z,3.80
2023-12-13T23:19:33.618Z,3.90
2023-12-13T23:22:01.879Z,5.20
2023-12-13T23:24:30.124Z,4.80
2023-12-13T23:29:25.611Z,8.30
2023-12-13T23:31:53.883Z,9.10
2023-12-13T23:34:21.976Z,10.00
2023-12-13T23:36:49.931Z,7.50
2023-12-13T23:39:18.040Z,10.30
2023-12-13T23:41:46.118Z,11.60
2023-12-13T23:44:14.543Z,12.30
2023-12-13T23:46:43.222Z,8.50
2023-12-13T23:49:11.406Z,8.40
2023-12-13T23:51:39.443Z,9.30
2023-12-13T23:54:07.298Z,9.70
2023-12-13T23:56:37.147Z,11.50
2023-12-13T23:59:05.193Z,8.70
